Time;durP1;ratioP1;P1;durP2;ratioP2;P2;SDS_P1;SDS_P2;PMS_P1;PMS_P2;Temp;Humidity;BMP_temperature;BMP_pressure;BME280_temperature;BME280_humidity;BME280_pressure;Samples;Min_cycle;Max_cycle;Signal;HPM_P1;HPM_P2
2024/01/20 00:01:42;;;;;;;30.58;13.23;;;;;;;;;;5049114;28;20524;-70
2024/01/20 00:04:10;;;;;;;27.35;12.45;;;;;;;;;;5052127;28;20057;-69
2024/01/20 00:06:36;;;;;;;35.67;14.35;;;;;;;;;;5047662;28;20041;-69
2024/01/20 00:09:03;;;;;;;28.42;12.25;;;;;;;;;;5051562;28;20110;-70
2024/01/20 00:11:29;;;;;;;28.20;12.93;;;;;;;;;;5047737;28;20049;-69
2024/01/20 00:13:56;;;;;;;32.00;14.63;;;;;;;;;;5052351;28;20049;-70
2024/01/20 00:16:22;;;;;;;29.38;13.15;;;;;;;;;;5047875;28;20140;-70
2024/01/20 00:18:48;;;;;;;25.67;13.18;;;;;;;;;;5043791;28;20048;-71
2024/01/20 00:21:16;;;;;;;27.20;13.40;;;;;;;;;;5051466;28;20049;-70
2024/01/20 00:23:43;;;;;;;31.58;14.32;;;;;;;;;;5047626;28;20049;-70
2024/01/20 00:26:09;;;;;;;29.17;13.52;;;;;;;;;;5051985;28;20049;-70
2024/01/20 00:28:35;;;;;;;38.22;14.23;;;;;;;;;;5043116;28;20475;-69
2024/01/20 00:31:02;;;;;;;39.35;14.77;;;;;;;;;;5044293;28;20046;-69
2024/01/20 00:33:28;;;;;;;38.72;14.60;;;;;;;;;;5049354;28;20497;-69
2024/01/20 00:35:54;;;;;;;28.00;12.65;;;;;;;;;;5042397;28;20047;-70
2024/01/20 00:38:22;;;;;;;33.92;13.32;;;;;;;;;;5042406;28;20045;-70
2024/01/20 00:40:49;;;;;;;41.45;13.57;;;;;;;;;;5047323;28;20072;-71
2024/01/20 00:43:15;;;;;;;37.72;14.18;;;;;;;;;;5048480;28;20055;-69
2024/01/20 00:45:41;;;;;;;31.50;11.95;;;;;;;;;;5050725;28;20056;-69
2024/01/20 00:48:08;;;;;;;27.55;12.32;;;;;;;;;;5042875;28;20474;-69
2024/01/20 00:50:34;;;;;;;34.28;12.88;;;;;;;;;;5013688;28;1066366;-69
2024/01/20 00:53:00;;;;;;;32.00;11.65;;;;;;;;;;5046062;28;20045;-69
2024/01/20 00:55:28;;;;;;;31.02;12.38;;;;;;;;;;5046380;28;20041;-69
2024/01/20 00:57:55;;;;;;;28.88;11.70;;;;;;;;;;5045987;28;20072;-68
2024/01/20 01:00:21;;;;;;;22.95;11.40;;;;;;;;;;5044039;28;20049;-69
2024/01/20 01:02:47;;;;;;;29.52;11.52;;;;;;;;;;5047882;28;20045;-69
2024/01/20 01:05:14;;;;;;;31.10;11.25;;;;;;;;;;5048207;28;20041;-70
2024/01/20 01:07:40;;;;;;;28.42;10.63;;;;;;;;;;5048227;28;20049;-69
2024/01/20 01:10:07;;;;;;;30.88;10.65;;;;;;;;;;5040512;28;20494;-69
2024/01/20 01:12:35;;;;;;;30.77;10.95;;;;;;;;;;5051235;28;20061;-69
2024/01/20 01:15:02;;;;;;;25.83;11.02;;;;;;;;;;5048715;28;20040;-71
2024/01/20 01:17:28;;;;;;;22.40;10.30;;;;;;;;;;5042937;28;20063;-69
2024/01/20 01:19:54;;;;;;;25.02;11.00;;;;;;;;;;5050390;28;20515;-69
2024/01/20 01:22:21;;;;;;;26.63;12.65;;;;;;;;;;5051149;28;20049;-69
2024/01/20 01:24:47;;;;;;;24.65;10.68;;;;;;;;;;5044135;28;20132;-69
2024/01/20 01:27:13;;;;;;;28.02;11.73;;;;;;;;;;5051029;28;20131;-70
2024/01/20 01:29:41;;;;;;;30.83;12.20;;;;;;;;;;5047399;28;20412;-69
2024/01/20 01:32:08;;;;;;;22.58;10.50;;;;;;;;;;5047417;28;20053;-69
2024/01/20 01:34:34;;;;;;;29.00;11.82;;;;;;;;;;5051318;28;20048;-69
2024/01/20 01:37:00;;;;;;;26.80;10.07;;;;;;;;;;5047564;28;20413;-69
2024/01/20 01:39:27;;;;;;;23.95;11.70;;;;;;;;;;5043379;28;20417;-69
2024/01/20 01:41:53;;;;;;;29.02;11.50;;;;;;;;;;5048047;28;20053;-69
2024/01/20 01:44:19;;;;;;;33.45;12.07;;;;;;;;;;5050989;28;20044;-69
2024/01/20 01:46:47;;;;;;;23.45;11.70;;;;;;;;;;5043621;28;20453;-69
2024/01/20 01:49:14;;;;;;;26.88;11.18;;;;;;;;;;5041966;28;20083;-69
2024/01/20 01:51:40;;;;;;;30.70;12.25;;;;;;;;;;5048009;28;20063;-69
2024/01/20 01:54:08;;;;;;;25.65;11.63;;;;;;;;;;5051574;28;20051;-69
2024/01/20 01:56:34;;;;;;;26.50;12.75;;;;;;;;;;5050681;28;20049;-70
2024/01/20 01:59:01;;;;;;;23.98;10.98;;;;;;;;;;5047137;28;20491;-69
2024/01/20 02:01:27;;;;;;;23.02;10.95;;;;;;;;;;5046936;28;20519;-69
2024/01/20 02:03:55;;;;;;;25.17;10.35;;;;;;;;;;5045252;28;20136;-70
2024/01/20 02:06:21;;;;;;;27.20;10.35;;;;;;;;;;5045624;28;20455;-70
2024/01/20 02:08:48;;;;;;;22.65;10.95;;;;;;;;;;5049988;28;20081;-69
2024/01/20 02:11:15;;;;;;;21.88;9.80;;;;;;;;;;5047480;28;20493;-70
2024/01/20 02:13:41;;;;;;;24.38;11.15;;;;;;;;;;5047543;28;20412;-69
2024/01/20 02:16:08;;;;;;;28.58;11.57;;;;;;;;;;5048113;28;20048;-70
2024/01/20 02:18:34;;;;;;;24.80;10.85;;;;;;;;;;5048991;28;20059;-70
2024/01/20 02:21:02;;;;;;;23.75;10.93;;;;;;;;;;5041974;28;20049;-69
2024/01/20 02:23:30;;;;;;;28.40;11.57;;;;;;;;;;5047391;28;20416;-69
2024/01/20 02:25:56;;;;;;;26.88;12.48;;;;;;;;;;5047631;28;20041;-69
2024/01/20 02:28:22;;;;;;;27.52;12.05;;;;;;;;;;5040526;28;20469;-69
2024/01/20 02:30:49;;;;;;;32.35;12.05;;;;;;;;;;5046775;28;20040;-69
2024/01/20 02:33:15;;;;;;;31.02;12.68;;;;;;;;;;5050457;28;20359;-68
2024/01/20 02:35:41;;;;;;;29.95;11.25;;;;;;;;;;5050632;28;20051;-68
2024/01/20 02:38:08;;;;;;;25.65;10.02;;;;;;;;;;5046712;28;20045;-69
2024/01/20 02:40:35;;;;;;;20.67;9.45;;;;;;;;;;5047574;28;20055;-68
2024/01/20 02:43:02;;;;;;;21.40;8.98;;;;;;;;;;5038855;28;20481;-69
2024/01/20 02:45:28;;;;;;;24.17;9.57;;;;;;;;;;5042226;28;20475;-69
2024/01/20 02:47:55;;;;;;;17.10;7.78;;;;;;;;;;5038520;28;20135;-69
2024/01/20 02:50:21;;;;;;;18.08;8.85;;;;;;;;;;5049603;28;20053;-69
2024/01/20 02:52:48;;;;;;;17.08;8.73;;;;;;;;;;5050121;28;20045;-69
2024/01/20 02:55:14;;;;;;;21.65;9.32;;;;;;;;;;5039415;28;20060;-70
2024/01/20 02:57:42;;;;;;;25.27;9.93;;;;;;;;;;5041515;28;20044;-70
2024/01/20 03:00:09;;;;;;;21.25;9.23;;;;;;;;;;5049888;28;20051;-69
2024/01/20 03:02:35;;;;;;;24.73;9.13;;;;;;;;;;5039525;28;20041;-69
2024/01/20 03:05:02;;;;;;;22.75;9.85;;;;;;;;;;5041170;28;20444;-69
2024/01/20 03:07:28;;;;;;;21.45;9.32;;;;;;;;;;5048266;28;20045;-69
2024/01/20 03:09:55;;;;;;;21.45;9.10;;;;;;;;;;5049548;28;20049;-70
2024/01/20 03:12:21;;;;;;;22.70;9.30;;;;;;;;;;5042316;28;20045;-69
2024/01/20 03:14:49;;;;;;;25.02;11.13;;;;;;;;;;5050060;28;20123;-70
2024/01/20 03:17:15;;;;;;;22.25;9.55;;;;;;;;;;5049740;28;20041;-69
2024/01/20 03:19:42;;;;;;;20.45;8.20;;;;;;;;;;5046195;28;20052;-69
2024/01/20 03:22:08;;;;;;;18.35;8.80;;;;;;;;;;5050162;28;20523;-70
2024/01/20 03:24:34;;;;;;;18.67;8.32;;;;;;;;;;5041819;28;20079;-70
2024/01/20 03:27:01;;;;;;;22.63;8.63;;;;;;;;;;5043385;28;20041;-69
2024/01/20 03:29:27;;;;;;;19.50;9.32;;;;;;;;;;5049204;28;20049;-68
2024/01/20 03:31:55;;;;;;;23.05;9.52;;;;;;;;;;5046530;28;20136;-69
2024/01/20 03:34:22;;;;;;;22.80;9.68;;;;;;;;;;5050062;28;20047;-69
2024/01/20 03:36:49;;;;;;;22.90;9.35;;;;;;;;;;5045510;28;20053;-69
2024/01/20 03:39:15;;;;;;;24.17;9.68;;;;;;;;;;5046113;28;20045;-70
2024/01/20 03:41:42;;;;;;;24.77;9.88;;;;;;;;;;5041708;28;20060;-69
2024/01/20 03:44:08;;;;;;;23.52;9.35;;;;;;;;;;5053539;28;20051;-69
2024/01/20 03:46:35;;;;;;;25.92;10.02;;;;;;;;;;5053135;28;20151;-69
2024/01/20 03:49:01;;;;;;;28.55;10.13;;;;;;;;;;5052682;28;20053;-70
2024/01/20 03:51:28;;;;;;;27.73;10.35;;;;;;;;;;5049798;28;20049;-70
2024/01/20 03:53:54;;;;;;;31.55;10.75;;;;;;;;;;5048385;28;20052;-69
2024/01/20 03:56:21;;;;;;;22.02;8.95;;;;;;;;;;5049398;28;20131;-69
2024/01/20 03:58:47;;;;;;;23.25;10.05;;;;;;;;;;5051859;28;20067;-69
2024/01/20 04:01:14;;;;;;;25.80;10.07;;;;;;;;;;5053154;28;20058;-69
2024/01/20 04:03:40;;;;;;;24.48;9.65;;;;;;;;;;5049381;28;20075;-69
2024/01/20 04:06:08;;;;;;;23.42;9.27;;;;;;;;;;5038330;28;20052;-69
2024/01/20 04:08:34;;;;;;;18.77;9.00;;;;;;;;;;5051438;28;20080;-69
2024/01/20 04:11:01;;;;;;;26.50;8.95;;;;;;;;;;5049427;28;20487;-69
2024/01/20 04:13:27;;;;;;;23.48;9.23;;;;;;;;;;5045418;28;20041;-68
2024/01/20 04:15:55;;;;;;;25.77;9.43;;;;;;;;;;5053171;28;20048;-68
2024/01/20 04:18:21;;;;;;;22.85;8.75;;;;;;;;;;5051739;28;20041;-69
2024/01/20 04:20:48;;;;;;;21.67;8.30;;;;;;;;;;5052825;28;20049;-69
2024/01/20 04:23:15;;;;;;;24.75;9.57;;;;;;;;;;5048761;28;20045;-69
2024/01/20 04:25:42;;;;;;;24.50;9.20;;;;;;;;;;5052707;28;20055;-69
2024/01/20 04:28:08;;;;;;;20.52;9.35;;;;;;;;;;5049726;28;20045;-69
2024/01/20 04:30:35;;;;;;;25.95;10.02;;;;;;;;;;5043560;28;20055;-69
2024/01/20 04:33:01;;;;;;;23.52;9.05;;;;;;;;;;5052101;28;20511;-69
2024/01/20 04:35:28;;;;;;;24.55;9.07;;;;;;;;;;5051229;28;20056;-69
2024/01/20 04:37:54;;;;;;;22.80;9.90;;;;;;;;;;5045918;28;20421;-68
2024/01/20 04:40:22;;;;;;;23.80;10.52;;;;;;;;;;5050735;28;20049;-70
2024/01/20 04:42:48;;;;;;;24.42;9.98;;;;;;;;;;5045377;28;20486;-69
2024/01/20 04:45:15;;;;;;;24.85;9.77;;;;;;;;;;5049201;28;20047;-68
2024/01/20 04:47:42;;;;;;;24.80;9.27;;;;;;;;;;5052193;28;20049;-69
2024/01/20 04:50:08;;;;;;;29.33;11.02;;;;;;;;;;5048443;28;20041;-69
2024/01/20 04:52:34;;;;;;;23.13;9.18;;;;;;;;;;5047985;28;20053;-69
2024/01/20 04:55:01;;;;;;;24.35;9.98;;;;;;;;;;5051293;28;20504;-69
2024/01/20 04:57:29;;;;;;;23.83;10.23;;;;;;;;;;5047853;28;20128;-69
2024/01/20 04:59:55;;;;;;;24.20;10.00;;;;;;;;;;5051226;28;20096;-69
2024/01/20 05:02:21;;;;;;;21.80;8.68;;;;;;;;;;5051550;28;20417;-69
2024/01/20 05:04:48;;;;;;;26.38;9.90;;;;;;;;;;5052393;28;20045;-69
2024/01/20 05:07:14;;;;;;;26.35;9.68;;;;;;;;;;5047879;28;20277;-69
2024/01/20 05:09:41;;;;;;;21.60;8.65;;;;;;;;;;5042866;28;20127;-69
2024/01/20 05:12:07;;;;;;;26.48;11.32;;;;;;;;;;5051860;28;20045;-69
2024/01/20 05:14:35;;;;;;;24.42;10.77;;;;;;;;;;5049926;28;20939;-69
2024/01/20 05:17:03;;;;;;;26.40;11.80;;;;;;;;;;5042917;28;20496;-69
2024/01/20 05:19:29;;;;;;;23.30;9.30;;;;;;;;;;5047686;28;20054;-70
2024/01/20 05:21:56;;;;;;;32.17;10.82;;;;;;;;;;5050923;28;20370;-69
2024/01/20 05:24:22;;;;;;;24.10;11.32;;;;;;;;;;5050605;28;20067;-69
2024/01/20 05:26:49;;;;;;;26.27;10.90;;;;;;;;;;5051091;28;20144;-69
2024/01/20 05:29:15;;;;;;;28.30;10.60;;;;;;;;;;5050933;28;20044;-69
2024/01/20 05:31:43;;;;;;;26.85;10.30;;;;;;;;;;5044910;28;20051;-69
2024/01/20 05:34:10;;;;;;;26.40;11.05;;;;;;;;;;5047462;28;20045;-69
2024/01/20 05:36:37;;;;;;;21.83;9.95;;;;;;;;;;5050452;28;20420;-69
2024/01/20 05:39:04;;;;;;;19.92;8.35;;;;;;;;;;5051009;28;20049;-69
2024/01/20 05:41:30;;;;;;;23.35;9.45;;;;;;;;;;5041953;28;20045;-68
2024/01/20 05:43:57;;;;;;;18.40;8.52;;;;;;;;;;5044395;28;20421;-68
2024/01/20 05:46:23;;;;;;;26.10;9.48;;;;;;;;;;5050649;28;20047;-69
2024/01/20 05:48:51;;;;;;;22.98;9.35;;;;;;;;;;5044826;28;20055;-69
2024/01/20 05:51:17;;;;;;;22.27;9.40;;;;;;;;;;5048334;28;20132;-69
2024/01/20 05:53:44;;;;;;;19.58;9.13;;;;;;;;;;5047408;28;20082;-69
2024/01/20 05:56:10;;;;;;;27.88;9.90;;;;;;;;;;5036024;28;20049;-69
2024/01/20 05:58:37;;;;;;;19.85;9.38;;;;;;;;;;5043104;28;20045;-70
2024/01/20 06:01:03;;;;;;;23.73;9.32;;;;;;;;;;5045413;28;20412;-70
2024/01/20 06:03:29;;;;;;;20.00;8.43;;;;;;;;;;5050632;28;20051;-69
2024/01/20 06:05:57;;;;;;;19.27;7.80;;;;;;;;;;5042130;28;20041;-69
2024/01/20 06:08:24;;;;;;;19.70;8.40;;;;;;;;;;5043777;28;20049;-69
2024/01/20 06:10:51;;;;;;;18.38;8.57;;;;;;;;;;5046483;28;20041;-69
2024/01/20 06:13:17;;;;;;;24.80;9.10;;;;;;;;;;5047745;28;20090;-69
2024/01/20 06:15:44;;;;;;;23.77;9.10;;;;;;;;;;5046017;28;20041;-69
2024/01/20 06:18:10;;;;;;;25.38;10.57;;;;;;;;;;5046703;28;20049;-69
2024/01/20 06:20:36;;;;;;;19.25;8.35;;;;;;;;;;5048768;28;20056;-69
2024/01/20 06:23:04;;;;;;;20.98;9.57;;;;;;;;;;5049402;28;20074;-67
2024/01/20 06:25:31;;;;;;;19.60;9.23;;;;;;;;;;5041874;28;20132;-67
2024/01/20 06:27:57;;;;;;;19.75;8.68;;;;;;;;;;5042553;28;20049;-67
2024/01/20 06:30:24;;;;;;;19.30;9.48;;;;;;;;;;5042109;28;20049;-67
2024/01/20 06:32:50;;;;;;;20.75;8.98;;;;;;;;;;5049687;28;20053;-67
2024/01/20 06:35:17;;;;;;;21.60;9.43;;;;;;;;;;5047229;28;20072;-67
2024/01/20 06:37:43;;;;;;;21.58;9.25;;;;;;;;;;5034820;28;20073;-66
2024/01/20 06:40:11;;;;;;;18.58;8.55;;;;;;;;;;5042971;28;20052;-67
2024/01/20 06:42:38;;;;;;;17.45;8.10;;;;;;;;;;5039860;28;20496;-67
2024/01/20 06:45:04;;;;;;;23.15;9.57;;;;;;;;;;5037849;28;20041;-67
2024/01/20 06:47:31;;;;;;;18.08;8.18;;;;;;;;;;5039781;28;20191;-67
2024/01/20 06:49:57;;;;;;;20.65;9.40;;;;;;;;;;5036300;28;20075;-67
2024/01/20 06:52:23;;;;;;;19.63;8.32;;;;;;;;;;5049537;28;20128;-67
2024/01/20 06:54:50;;;;;;;23.23;9.23;;;;;;;;;;5050344;28;20045;-67
2024/01/20 06:57:18;;;;;;;16.45;7.88;;;;;;;;;;5046594;28;20085;-67
2024/01/20 06:59:44;;;;;;;24.90;9.23;;;;;;;;;;5034592;28;20133;-67
2024/01/20 07:02:11;;;;;;;20.05;8.77;;;;;;;;;;5038948;28;20089;-67
2024/01/20 07:04:37;;;;;;;20.83;9.18;;;;;;;;;;5034780;28;20095;-66
2024/01/20 07:07:04;;;;;;;21.80;10.15;;;;;;;;;;5049249;28;20548;-66
2024/01/20 07:09:30;;;;;;;20.88;9.20;;;;;;;;;;5049526;28;20053;-67
2024/01/20 07:11:57;;;;;;;24.80;8.93;;;;;;;;;;5050068;28;20045;-67
2024/01/20 07:14:25;;;;;;;21.70;9.90;;;;;;;;;;5049239;28;20048;-66
2024/01/20 07:16:52;;;;;;;24.77;10.68;;;;;;;;;;5042422;28;20079;-66
2024/01/20 07:19:18;;;;;;;24.45;9.48;;;;;;;;;;5050726;28;20416;-67
2024/01/20 07:21:45;;;;;;;26.02;9.68;;;;;;;;;;5049401;28;20045;-67
2024/01/20 07:24:11;;;;;;;24.38;9.25;;;;;;;;;;5046333;28;20060;-67
2024/01/20 07:26:37;;;;;;;27.60;10.85;;;;;;;;;;5045569;28;20049;-67
2024/01/20 07:29:04;;;;;;;26.13;10.85;;;;;;;;;;5053387;28;20048;-67
2024/01/20 07:31:32;;;;;;;43.47;16.35;;;;;;;;;;5054027;28;20053;-67
2024/01/20 07:33:58;;;;;;;21.63;10.25;;;;;;;;;;5048282;28;20448;-66
2024/01/20 07:36:24;;;;;;;28.08;11.23;;;;;;;;;;5043431;28;20045;-67
2024/01/20 07:38:51;;;;;;;21.50;9.80;;;;;;;;;;5047633;28;20041;-67
2024/01/20 07:41:18;;;;;;;21.42;10.27;;;;;;;;;;5053561;28;20045;-67
2024/01/20 07:43:44;;;;;;;20.00;9.05;;;;;;;;;;5046171;28;20056;-66
2024/01/20 07:46:12;;;;;;;26.17;10.10;;;;;;;;;;5042629;28;20059;-67
2024/01/20 07:48:39;;;;;;;25.02;9.60;;;;;;;;;;5051807;28;20044;-66
2024/01/20 07:51:06;;;;;;;24.35;9.65;;;;;;;;;;5039470;28;20552;-67
2024/01/20 07:53:32;;;;;;;18.58;9.25;;;;;;;;;;5044510;28;20051;-66
2024/01/20 07:55:59;;;;;;;16.13;8.02;;;;;;;;;;5048247;28;20047;-67
2024/01/20 07:58:25;;;;;;;22.52;9.48;;;;;;;;;;5044802;28;20128;-66
2024/01/20 08:00:51;;;;;;;23.92;8.68;;;;;;;;;;5052685;28;20052;-67
2024/01/20 08:03:18;;;;;;;18.25;9.73;;;;;;;;;;5053307;28;20526;-67
2024/01/20 08:05:46;;;;;;;16.88;8.40;;;;;;;;;;5045565;28;20041;-67
2024/01/20 08:08:12;;;;;;;18.92;9.35;;;;;;;;;;5044956;28;20383;-67
2024/01/20 08:10:39;;;;;;;22.38;8.40;;;;;;;;;;5040276;28;20179;-67
2024/01/20 08:13:05;;;;;;;23.27;8.40;;;;;;;;;;5049841;28;20128;-68
2024/01/20 08:15:32;;;;;;;24.77;9.98;;;;;;;;;;5036057;28;20080;-68
2024/01/20 08:17:58;;;;;;;19.25;9.27;;;;;;;;;;5033577;28;20051;-67
2024/01/20 08:20:25;;;;;;;17.08;8.60;;;;;;;;;;5042570;28;20098;-68
2024/01/20 08:22:53;;;;;;;23.75;9.95;;;;;;;;;;5045206;28;20045;-67
2024/01/20 08:25:19;;;;;;;20.02;8.50;;;;;;;;;;5045092;28;20051;-67
2024/01/20 08:27:45;;;;;;;22.20;7.85;;;;;;;;;;5043807;28;20511;-67
2024/01/20 08:30:12;;;;;;;17.10;8.30;;;;;;;;;;5040790;28;20045;-67
2024/01/20 08:32:40;;;;;;;20.23;9.20;;;;;;;;;;5048553;28;20045;-67
2024/01/20 08:35:06;;;;;;;21.48;9.07;;;;;;;;;;5045913;28;20046;-69
2024/01/20 08:37:32;;;;;;;22.05;8.73;;;;;;;;;;5040893;28;20045;-69
2024/01/20 08:40:00;;;;;;;21.30;9.52;;;;;;;;;;5033082;28;20053;-68
2024/01/20 08:42:27;;;;;;;17.73;9.43;;;;;;;;;;5049555;28;20497;-69
2024/01/20 08:44:53;;;;;;;23.10;9.02;;;;;;;;;;5051516;28;20115;-69
2024/01/20 08:47:19;;;;;;;22.15;8.95;;;;;;;;;;5049294;28;20692;-69
2024/01/20 08:49:47;;;;;;;22.50;8.30;;;;;;;;;;5040609;28;20141;-68
2024/01/20 08:52:14;;;;;;;19.17;8.15;;;;;;;;;;5047751;28;20548;-68
2024/01/20 08:54:40;;;;;;;21.42;7.60;;;;;;;;;;5051759;28;20041;-69
2024/01/20 08:57:08;;;;;;;14.40;6.70;;;;;;;;;;5051293;28;20508;-69
2024/01/20 08:59:34;;;;;;;18.77;8.63;;;;;;;;;;5036613;28;20041;-68
2024/01/20 09:02:01;;;;;;;22.67;8.80;;;;;;;;;;5038735;28;20042;-69
2024/01/20 09:04:27;;;;;;;18.13;8.43;;;;;;;;;;5049763;28;20431;-68
2024/01/20 09:06:53;;;;;;;19.35;8.73;;;;;;;;;;5038912;28;20141;-69
2024/01/20 09:09:20;;;;;;;21.52;8.10;;;;;;;;;;5033385;28;20485;-68
2024/01/20 09:11:46;;;;;;;22.45;8.95;;;;;;;;;;5041523;28;20041;-69
2024/01/20 09:14:14;;;;;;;19.38;8.80;;;;;;;;;;5048829;28;20052;-68
2024/01/20 09:16:40;;;;;;;25.95;10.45;;;;;;;;;;5050827;28;20040;-68
2024/01/20 09:19:07;;;;;;;24.38;9.27;;;;;;;;;;5042864;28;20049;-69
2024/01/20 09:21:33;;;;;;;22.98;9.38;;;;;;;;;;5041393;28;20045;-68
2024/01/20 09:24:00;;;;;;;19.10;8.82;;;;;;;;;;5046238;28;20431;-68
2024/01/20 09:26:26;;;;;;;22.00;10.10;;;;;;;;;;5035469;28;20417;-69
2024/01/20 09:28:53;;;;;;;24.65;10.60;;;;;;;;;;5036050;28;20052;-68
2024/01/20 09:31:20;;;;;;;23.80;10.70;;;;;;;;;;5040457;28;20136;-68
2024/01/20 09:33:47;;;;;;;21.38;10.02;;;;;;;;;;5036437;28;20065;-68
2024/01/20 09:36:13;;;;;;;17.60;8.25;;;;;;;;;;5032781;28;20053;-68
2024/01/20 09:38:39;;;;;;;17.35;7.78;;;;;;;;;;5042729;28;20057;-67
2024/01/20 09:41:09;;;;;;;17.30;8.57;;;;;;;;;;5044560;28;20046;-68
2024/01/20 09:43:36;;;;;;;24.30;9.50;;;;;;;;;;5039218;28;20061;-68
2024/01/20 09:46:03;;;;;;;19.77;9.10;;;;;;;;;;5045395;28;20055;-68
2024/01/20 09:48:30;;;;;;;20.65;8.88;;;;;;;;;;5038740;28;20041;-68
2024/01/20 09:50:57;;;;;;;19.58;9.10;;;;;;;;;;5045435;28;20065;-68
2024/01/20 09:53:25;;;;;;;18.65;8.48;;;;;;;;;;5042647;28;20131;-68
2024/01/20 09:55:51;;;;;;;21.20;8.98;;;;;;;;;;5044631;28;20045;-68
2024/01/20 09:58:19;;;;;;;17.30;8.77;;;;;;;;;;5042693;28;20053;-67
2024/01/20 10:00:46;;;;;;;24.55;9.93;;;;;;;;;;5045485;28;20079;-68
2024/01/20 10:03:12;;;;;;;24.30;10.18;;;;;;;;;;5050790;28;20134;-68
2024/01/20 10:05:40;;;;;;;23.42;10.20;;;;;;;;;;5050471;28;20045;-68
2024/01/20 10:08:07;;;;;;;19.55;8.75;;;;;;;;;;5044099;28;20532;-68
2024/01/20 10:10:33;;;;;;;20.70;9.20;;;;;;;;;;5041690;28;20469;-67
2024/01/20 10:13:00;;;;;;;19.90;9.45;;;;;;;;;;5050100;28;20049;-67
2024/01/20 10:15:28;;;;;;;16.48;8.40;;;;;;;;;;5049012;28;20084;-68
2024/01/20 10:17:54;;;;;;;16.70;8.02;;;;;;;;;;5039244;28;20049;-68
2024/01/20 10:20:21;;;;;;;19.92;8.80;;;;;;;;;;5036262;28;20045;-68
2024/01/20 10:22:50;;;;;;;16.75;8.70;;;;;;;;;;5039947;28;20509;-68
2024/01/20 10:25:19;;;;;;;17.40;7.43;;;;;;;;;;5039457;28;20135;-68
2024/01/20 10:27:44;;;;;;;18.10;9.57;;;;;;;;;;5042733;28;20045;-68
2024/01/20 10:30:11;;;;;;;19.58;9.63;;;;;;;;;;5049845;28;20260;-68
2024/01/20 10:32:40;;;;;;;22.05;8.45;;;;;;;;;;5047625;28;20040;-68
2024/01/20 10:35:08;;;;;;;23.33;9.82;;;;;;;;;;5046119;28;20053;-68
2024/01/20 10:37:34;;;;;;;21.27;9.25;;;;;;;;;;5042198;28;20049;-68
2024/01/20 10:40:02;;;;;;;18.80;9.30;;;;;;;;;;5050006;28;20063;-68
2024/01/20 10:42:30;;;;;;;18.10;8.43;;;;;;;;;;5041343;28;20045;-68
2024/01/20 10:44:59;;;;;;;22.88;9.77;;;;;;;;;;5031994;28;20243;-68
2024/01/20 10:47:30;;;;;;;20.30;8.55;;;;;;;;;;5039230;28;20048;-68
2024/01/20 10:49:58;;;;;;;24.25;9.90;;;;;;;;;;5044009;28;20493;-68
2024/01/20 10:52:24;;;;;;;20.58;8.25;;;;;;;;;;5037591;28;20052;-68
2024/01/20 10:54:51;;;;;;;22.45;9.27;;;;;;;;;;5047824;28;20511;-68
2024/01/20 10:57:19;;;;;;;20.45;9.00;;;;;;;;;;5052978;28;20076;-68
2024/01/20 10:59:45;;;;;;;18.92;7.93;;;;;;;;;;5043085;28;20041;-68
2024/01/20 11:02:13;;;;;;;17.63;8.93;;;;;;;;;;5040065;28;20060;-68
2024/01/20 11:04:43;;;;;;;18.95;8.07;;;;;;;;;;5051622;28;20479;-68
2024/01/20 11:07:09;;;;;;;19.15;8.18;;;;;;;;;;5041341;28;20051;-68
2024/01/20 11:09:36;;;;;;;19.77;8.90;;;;;;;;;;5035978;28;20426;-68
2024/01/20 11:12:03;;;;;;;23.02;10.13;;;;;;;;;;5041473;28;20052;-68
2024/01/20 11:14:31;;;;;;;22.67;10.05;;;;;;;;;;5053946;28;20048;-68
2024/01/20 11:17:00;;;;;;;18.90;8.43;;;;;;;;;;5048514;28;20049;-68
2024/01/20 11:19:29;;;;;;;19.15;8.68;;;;;;;;;;5043002;28;20461;-67
2024/01/20 11:21:55;;;;;;;20.15;8.85;;;;;;;;;;5043018;28;20049;-68
2024/01/20 11:24:35;;;;;;;19.48;9.27;;;;;;;;;;5035656;28;20053;-68
2024/01/20 11:27:03;;;;;;;17.48;7.88;;;;;;;;;;5048096;28;20045;-68
2024/01/20 11:29:31;;;;;;;19.92;8.45;;;;;;;;;;5052693;28;20500;-68
2024/01/20 11:31:57;;;;;;;25.70;8.98;;;;;;;;;;5048504;28;20132;-68
2024/01/20 11:34:24;;;;;;;19.10;9.27;;;;;;;;;;5043515;28;20466;-68
2024/01/20 11:36:51;;;;;;;21.00;9.98;;;;;;;;;;5041368;28;20045;-68
2024/01/20 11:39:18;;;;;;;16.58;8.18;;;;;;;;;;5049072;28;20048;-68
2024/01/20 11:41:45;;;;;;;16.27;8.32;;;;;;;;;;5053176;28;20064;-68
2024/01/20 11:44:12;;;;;;;17.52;9.05;;;;;;;;;;5038839;28;20080;-68
2024/01/20 11:46:40;;;;;;;16.35;7.95;;;;;;;;;;5047534;28;20045;-68
2024/01/20 11:49:06;;;;;;;20.60;8.57;;;;;;;;;;5046409;28;20068;-68
2024/01/20 11:51:32;;;;;;;22.08;9.25;;;;;;;;;;5051572;28;20398;-68
2024/01/20 11:53:59;;;;;;;18.17;8.50;;;;;;;;;;5052657;28;20053;-68
2024/01/20 11:56:26;;;;;;;18.33;8.98;;;;;;;;;;5052794;28;20064;-67
2024/01/20 11:58:52;;;;;;;19.20;9.27;;;;;;;;;;5045717;28;20041;-68
2024/01/20 12:01:18;;;;;;;17.50;8.57;;;;;;;;;;5045542;28;20045;-68
2024/01/20 12:03:46;;;;;;;22.10;10.48;;;;;;;;;;5041483;28;20049;-68
2024/01/20 12:06:13;;;;;;;23.77;9.95;;;;;;;;;;5042185;28;20053;-68
2024/01/20 12:08:40;;;;;;;33.22;12.60;;;;;;;;;;5045410;28;20412;-68
2024/01/20 12:11:07;;;;;;;46.78;20.25;;;;;;;;;;5048070;28;20122;-69
2024/01/20 12:13:35;;;;;;;64.95;24.75;;;;;;;;;;5042938;28;20045;-68
2024/01/20 12:16:01;;;;;;;21.05;10.77;;;;;;;;;;5040035;28;20511;-68
2024/01/20 12:18:28;;;;;;;22.63;9.98;;;;;;;;;;5035116;28;20059;-68
2024/01/20 12:20:55;;;;;;;23.95;9.70;;;;;;;;;;5046493;28;20053;-68
2024/01/20 12:23:22;;;;;;;32.42;13.00;;;;;;;;;;5052338;28;20132;-69
2024/01/20 12:25:51;;;;;;;20.65;10.45;;;;;;;;;;5052829;28;20145;-68
2024/01/20 12:28:18;;;;;;;20.85;9.32;;;;;;;;;;5047953;28;20045;-68
2024/01/20 12:30:44;;;;;;;27.80;10.88;;;;;;;;;;5040670;28;20041;-68
2024/01/20 12:33:10;;;;;;;36.97;16.05;;;;;;;;;;5039963;28;20057;-68
2024/01/20 12:35:37;;;;;;;20.08;10.10;;;;;;;;;;5044698;28;20083;-68
2024/01/20 12:38:05;;;;;;;22.20;9.32;;;;;;;;;;5043840;28;20048;-68
2024/01/20 12:40:31;;;;;;;21.25;9.85;;;;;;;;;;5043044;28;20488;-68
2024/01/20 12:42:57;;;;;;;25.50;12.32;;;;;;;;;;5051607;28;20064;-68
2024/01/20 12:45:24;;;;;;;27.95;12.88;;;;;;;;;;5043647;28;20056;-68
2024/01/20 12:47:50;;;;;;;22.95;9.55;;;;;;;;;;5044834;28;20086;-68
2024/01/20 12:50:17;;;;;;;24.27;10.65;;;;;;;;;;5043480;28;20048;-68
2024/01/20 12:52:43;;;;;;;25.63;10.20;;;;;;;;;;5051833;28;20052;-68
2024/01/20 12:55:11;;;;;;;24.63;10.88;;;;;;;;;;5043534;28;20044;-68
2024/01/20 12:57:37;;;;;;;24.55;10.38;;;;;;;;;;5048726;28;20416;-68
2024/01/20 13:00:04;;;;;;;23.48;10.23;;;;;;;;;;5033287;28;20104;-68
2024/01/20 13:02:31;;;;;;;23.90;10.25;;;;;;;;;;5041535;28;20064;-68
2024/01/20 13:04:57;;;;;;;25.42;11.23;;;;;;;;;;5045479;28;20056;-68
2024/01/20 13:07:24;;;;;;;25.85;9.73;;;;;;;;;;5035907;28;20421;-68
2024/01/20 13:09:50;;;;;;;26.13;10.57;;;;;;;;;;5044621;28;20045;-68
2024/01/20 13:12:18;;;;;;;25.00;10.02;;;;;;;;;;5050558;28;20041;-68
2024/01/20 13:14:44;;;;;;;26.95;10.43;;;;;;;;;;5046561;28;20050;-68
2024/01/20 13:17:11;;;;;;;22.05;10.25;;;;;;;;;;5039671;28;20140;-68
2024/01/20 13:19:37;;;;;;;23.65;10.15;;;;;;;;;;5050152;28;20128;-68
2024/01/20 13:22:04;;;;;;;20.05;9.45;;;;;;;;;;5051342;28;20047;-68
2024/01/20 13:24:30;;;;;;;23.55;9.40;;;;;;;;;;5036512;28;20054;-68
2024/01/20 13:26:57;;;;;;;23.70;10.32;;;;;;;;;;5038582;28;20132;-68
2024/01/20 13:29:25;;;;;;;19.92;9.05;;;;;;;;;;5033042;28;20497;-68
2024/01/20 13:31:52;;;;;;;20.27;9.85;;;;;;;;;;5046974;28;20045;-68
2024/01/20 13:34:18;;;;;;;22.05;10.25;;;;;;;;;;5043672;28;20052;-68
2024/01/20 13:36:44;;;;;;;25.58;9.77;;;;;;;;;;5042752;28;20041;-68
2024/01/20 13:39:11;;;;;;;23.65;9.60;;;;;;;;;;5043732;28;20046;-68
2024/01/20 13:41:37;;;;;;;22.25;9.40;;;;;;;;;;5048949;28;20424;-68
2024/01/20 13:44:04;;;;;;;21.98;9.43;;;;;;;;;;5045253;28;20049;-68
2024/01/20 13:46:32;;;;;;;23.02;10.05;;;;;;;;;;5039003;28;20428;-68
2024/01/20 13:48:58;;;;;;;25.20;10.05;;;;;;;;;;5042535;28;20487;-68
2024/01/20 13:51:27;;;;;;;23.77;9.50;;;;;;;;;;5043212;28;20136;-68
2024/01/20 13:53:53;;;;;;;24.48;10.43;;;;;;;;;;5040215;28;20041;-68
2024/01/20 13:56:20;;;;;;;25.00;10.07;;;;;;;;;;5046832;28;20128;-68
2024/01/20 13:58:47;;;;;;;25.80;10.65;;;;;;;;;;5044511;28;20080;-68
2024/01/20 14:01:13;;;;;;;22.98;9.52;;;;;;;;;;5043578;28;20577;-68
2024/01/20 14:03:41;;;;;;;24.45;10.68;;;;;;;;;;5043251;28;20080;-68
2024/01/20 14:06:07;;;;;;;22.33;10.00;;;;;;;;;;5050201;28;20053;-68
2024/01/20 14:08:33;;;;;;;24.63;10.52;;;;;;;;;;5048998;28;20128;-68
2024/01/20 14:11:00;;;;;;;31.08;12.02;;;;;;;;;;5049851;28;20497;-68
2024/01/20 14:13:26;;;;;;;24.38;10.27;;;;;;;;;;5049443;28;20088;-68
2024/01/20 14:15:54;;;;;;;29.80;11.23;;;;;;;;;;5039891;28;20052;-68
2024/01/20 14:18:20;;;;;;;30.60;14.55;;;;;;;;;;5031576;28;20346;-68
2024/01/20 14:20:48;;;;;;;27.10;10.80;;;;;;;;;;5042266;28;20041;-68